Terminal Aerodrome Forecast
Issued by NWS

Home | Current Version | Previous Version | Text Only | Print | Product List | Glossary Off
Versions: 1 2 3 4 5 6 7 8 9 10 11 12 13 14 15 16 17 18 19 20 21 22

000
FTUS43 KMPX 271722
TAFAXN
TAF
KAXN 271722Z 2718/2818 13012G19KT P6SM FEW020 SCT030
      TEMPO 2718/2719 BKN020
     FM280600 14011G17KT P6SM VCTS BKN040CB
     FM280800 16016G24KT 5SM -TSRA OVC040CB
     FM281100 15013KT 4SM BR OVC007
     FM281500 16012KT 6SM BR SCT008 OVC020=

USA.gov is the U.S. government's official web portal to all federal, state and local government web resources and services.